Aviation Digital Data Service (ADDS)

Output produced by METARs form (0433 UTC 21 November 2017)
found at http://www.aviationweather.gov/adds/metars/
 
TAF LOWW 202315Z 2100/2206 29010KT 9999 -RA SCT020 OVC060 TX09/2112Z TN02/2105Z 
     BECMG 2101/2103 21005KT 5000 RA BR OVC020 
     PROB40 
     TEMPO 2103/2106 2500 OVC008 
     BECMG 2106/2108 9999 -DZRA SCT020 OVC040 
     BECMG 2108/2110 29017KT 
     TEMPO 2112/2116 29020G30KT 
     FM220000 25007KT CAVOK